createdAt,value
2019-02-25T00:00:58.721Z,4.40
2019-02-25T00:01:58.725Z,4.40
2019-02-25T00:02:58.705Z,4.40
2019-02-25T00:03:58.675Z,4.39
2019-02-25T00:04:58.803Z,4.39
2019-02-25T00:05:58.653Z,4.39
2019-02-25T00:06:58.619Z,4.38
2019-02-25T00:07:58.593Z,4.39
2019-02-25T00:08:58.580Z,4.38
2019-02-25T00:09:58.557Z,4.39
2019-02-25T00:10:58.705Z,4.40
2019-02-25T00:11:58.527Z,4.38
2019-02-25T00:12:58.513Z,4.38
2019-02-25T00:13:58.496Z,4.38
2019-02-25T00:14:58.470Z,4.38
2019-02-25T00:15:58.459Z,4.34
2019-02-25T00:16:58.570Z,4.31
2019-02-25T00:17:58.428Z,4.30
2019-02-25T00:18:58.396Z,4.28
2019-02-25T00:19:58.388Z,4.27
2019-02-25T00:20:58.359Z,4.24
2019-02-25T00:21:58.346Z,4.24
2019-02-25T00:22:58.365Z,4.24
2019-02-25T00:23:58.321Z,4.22
2019-02-25T00:24:58.320Z,4.22
2019-02-25T00:25:58.268Z,4.22
2019-02-25T00:26:58.261Z,4.22
2019-02-25T00:27:58.229Z,4.24
2019-02-25T00:28:58.212Z,4.25
2019-02-25T00:29:58.229Z,4.27
2019-02-25T00:30:58.184Z,4.30
2019-02-25T00:31:58.183Z,4.32
2019-02-25T00:32:58.150Z,4.38
2019-02-25T00:33:58.125Z,4.40
2019-02-25T00:34:58.122Z,4.43
2019-02-25T00:35:58.094Z,4.45
2019-02-25T00:36:58.126Z,4.48
2019-02-25T00:37:58.058Z,4.50
2019-02-25T00:38:58.042Z,4.52
2019-02-25T00:39:58.025Z,4.53
2019-02-25T00:40:58.006Z,4.52
2019-02-25T00:41:57.988Z,4.56
2019-02-25T00:42:57.995Z,4.56
2019-02-25T00:43:57.950Z,4.57
2019-02-25T00:44:57.919Z,4.58
2019-02-25T00:45:57.901Z,4.58
2019-02-25T00:46:57.886Z,4.61
2019-02-25T00:47:57.975Z,4.63
2019-02-25T00:48:57.860Z,4.64
2019-02-25T00:49:57.848Z,4.66
2019-02-25T00:50:57.825Z,4.64
2019-02-25T00:51:57.806Z,4.64
2019-02-25T00:52:57.807Z,4.64
2019-02-25T00:53:57.780Z,4.64
2019-02-25T00:54:57.743Z,4.63
2019-02-25T00:55:57.731Z,4.63
2019-02-25T00:56:57.706Z,4.61
2019-02-25T00:57:57.688Z,4.61
2019-02-25T00:58:57.676Z,4.57
2019-02-25T00:59:57.657Z,4.58
2019-02-25T01:00:57.633Z,4.56
2019-02-25T01:01:57.612Z,4.56
2019-02-25T01:02:57.593Z,4.53
2019-02-25T01:03:57.584Z,4.52
2019-02-25T01:04:57.574Z,4.52
2019-02-25T01:05:57.558Z,4.52
2019-02-25T01:06:57.538Z,4.50
2019-02-25T01:07:57.511Z,4.49
2019-02-25T01:08:57.548Z,4.48
2019-02-25T01:09:57.468Z,4.48
2019-02-25T01:10:57.461Z,4.46
2019-02-25T01:11:57.435Z,4.45
2019-02-25T01:12:57.421Z,4.45
2019-02-25T01:13:57.391Z,4.46
2019-02-25T01:14:57.419Z,4.45
2019-02-25T01:15:57.376Z,4.45
2019-02-25T01:16:57.350Z,4.45
2019-02-25T01:17:57.330Z,4.45
2019-02-25T01:18:57.313Z,4.43
2019-02-25T01:19:57.325Z,4.45
2019-02-25T01:20:57.278Z,4.45
2019-02-25T01:21:57.267Z,4.45
2019-02-25T01:22:57.245Z,4.46
2019-02-25T01:23:57.219Z,4.46
2019-02-25T01:24:57.201Z,4.45
2019-02-25T01:25:57.218Z,4.45
2019-02-25T01:26:57.188Z,4.43
2019-02-25T01:27:57.139Z,4.42
2019-02-25T01:28:57.138Z,4.40
2019-02-25T01:29:57.102Z,4.39
2019-02-25T01:30:57.090Z,4.39
2019-02-25T01:31:57.134Z,4.39
2019-02-25T01:32:57.061Z,4.39
2019-02-25T01:33:57.028Z,4.38
2019-02-25T01:34:57.015Z,4.34
2019-02-25T01:35:56.993Z,4.32
2019-02-25T01:36:56.974Z,4.32
2019-02-25T01:37:56.983Z,4.31
2019-02-25T01:38:56.936Z,4.30
2019-02-25T01:39:56.933Z,4.27
2019-02-25T01:40:56.903Z,4.24
2019-02-25T01:41:56.894Z,4.22
2019-02-25T01:42:56.920Z,4.20
2019-02-25T01:43:56.844Z,4.18
2019-02-25T01:44:56.833Z,4.14
2019-02-25T01:45:56.812Z,4.12
2019-02-25T01:46:56.798Z,4.09
2019-02-25T01:47:56.771Z,4.04
2019-02-25T01:48:56.772Z,4.00
2019-02-25T01:49:56.737Z,3.95
2019-02-25T01:50:56.719Z,3.92
2019-02-25T01:51:56.711Z,3.89
2019-02-25T01:52:56.695Z,3.86
2019-02-25T01:53:56.700Z,3.84
2019-02-25T01:54:56.654Z,3.84
2019-02-25T01:55:56.629Z,3.84
2019-02-25T01:56:56.616Z,3.82
2019-02-25T01:57:56.590Z,3.81
2019-02-25T01:58:56.611Z,3.81
2019-02-25T01:59:56.593Z,3.78
2019-02-25T02:00:56.541Z,3.77
2019-02-25T02:01:56.521Z,3.77
2019-02-25T02:02:56.507Z,3.76
2019-02-25T02:03:56.493Z,3.77
2019-02-25T02:04:56.505Z,3.77
2019-02-25T02:05:56.451Z,3.76
2019-02-25T02:06:56.428Z,3.77
2019-02-25T02:07:56.403Z,3.77
2019-02-25T02:08:56.402Z,3.76
2019-02-25T02:09:56.408Z,3.74
2019-02-25T02:10:56.363Z,3.73
2019-02-25T02:11:56.341Z,3.71
2019-02-25T02:12:56.314Z,3.70
2019-02-25T02:13:56.308Z,3.68
2019-02-25T02:14:56.313Z,3.70
2019-02-25T02:15:56.273Z,3.68
2019-02-25T02:16:56.248Z,3.68
2019-02-25T02:17:56.220Z,3.70
2019-02-25T02:18:56.209Z,3.70
2019-02-25T02:19:56.324Z,3.70
2019-02-25T02:20:56.163Z,3.71
2019-02-25T02:21:56.148Z,3.68
2019-02-25T02:22:56.132Z,3.68
2019-02-25T02:23:56.122Z,3.70
2019-02-25T02:24:56.098Z,3.67
2019-02-25T02:25:56.083Z,3.67
2019-02-25T02:26:56.066Z,3.67
2019-02-25T02:27:56.030Z,3.67
2019-02-25T02:28:56.022Z,3.67
2019-02-25T02:29:55.995Z,3.67
2019-02-25T02:30:56.013Z,3.66
2019-02-25T02:31:56.004Z,3.67
2019-02-25T02:32:56.014Z,3.66
2019-02-25T02:33:55.932Z,3.66
2019-02-25T02:34:55.908Z,3.64
2019-02-25T02:35:55.891Z,3.64
2019-02-25T02:36:55.874Z,3.63
2019-02-25T02:37:55.847Z,3.63
2019-02-25T02:38:55.850Z,3.63
2019-02-25T02:39:55.821Z,3.63
2019-02-25T02:40:55.789Z,3.63
2019-02-25T02:41:55.769Z,3.63
2019-02-25T02:42:55.880Z,3.63
2019-02-25T02:43:55.742Z,3.63
2019-02-25T02:44:55.727Z,3.63
2019-02-25T02:45:55.714Z,3.63
2019-02-25T02:46:55.701Z,3.63
2019-02-25T02:47:55.657Z,3.64
2019-02-25T02:48:55.657Z,3.64
2019-02-25T02:49:55.637Z,3.66
2019-02-25T02:50:55.616Z,3.68
2019-02-25T02:51:55.584Z,3.68
2019-02-25T02:52:55.571Z,3.71
2019-02-25T02:53:55.589Z,3.73
2019-02-25T02:54:55.543Z,3.73
2019-02-25T02:55:55.508Z,3.73
2019-02-25T02:56:55.492Z,3.74
2019-02-25T02:57:55.484Z,3.76
2019-02-25T02:58:55.480Z,3.77
2019-02-25T02:59:55.447Z,3.77
2019-02-25T03:00:55.457Z,3.77
2019-02-25T03:01:55.404Z,3.78
2019-02-25T03:02:55.387Z,3.78
2019-02-25T03:03:55.409Z,3.81
2019-02-25T03:04:55.373Z,3.82
2019-02-25T03:05:55.320Z,3.85
2019-02-25T03:06:55.312Z,3.85
2019-02-25T03:07:55.296Z,3.86
2019-02-25T03:08:55.278Z,3.85
2019-02-25T03:09:55.323Z,3.84
2019-02-25T03:10:55.235Z,3.84
2019-02-25T03:11:55.226Z,3.81
2019-02-25T03:12:55.199Z,3.78
2019-02-25T03:13:55.177Z,3.78
2019-02-25T03:14:55.165Z,3.76
2019-02-25T03:15:55.179Z,3.73
2019-02-25T03:16:55.120Z,3.70
2019-02-25T03:17:55.097Z,3.67
2019-02-25T03:18:55.087Z,3.67
2019-02-25T03:19:55.064Z,3.66
2019-02-25T03:20:55.086Z,3.66
2019-02-25T03:21:55.027Z,3.64
2019-02-25T03:22:55.012Z,3.63
2019-02-25T03:23:54.985Z,3.63
2019-02-25T03:24:54.972Z,3.61
2019-02-25T03:25:54.949Z,3.63
2019-02-25T03:26:54.960Z,3.59
2019-02-25T03:27:54.913Z,3.58
2019-02-25T03:28:54.891Z,3.56
2019-02-25T03:29:54.888Z,3.55
2019-02-25T03:30:54.874Z,3.53
2019-02-25T03:31:54.874Z,3.50
2019-02-25T03:32:54.826Z,3.48
2019-02-25T03:33:54.813Z,3.45
2019-02-25T03:34:54.798Z,3.41
2019-02-25T03:35:54.778Z,3.40
2019-02-25T03:36:54.749Z,3.37
2019-02-25T03:37:54.742Z,3.41
2019-02-25T03:38:54.712Z,3.41
2019-02-25T03:39:54.693Z,3.41
2019-02-25T03:40:54.719Z,3.41
2019-02-25T03:41:54.681Z,3.40
2019-02-25T03:42:54.637Z,3.37
2019-02-25T03:43:54.620Z,3.40
2019-02-25T03:44:54.603Z,3.36
2019-02-25T03:45:54.577Z,3.33
2019-02-25T03:46:54.567Z,3.30
2019-02-25T03:47:54.542Z,3.31
2019-02-25T03:48:54.533Z,3.31
2019-02-25T03:49:54.498Z,3.30
2019-02-25T03:50:54.558Z,3.34
2019-02-25T03:51:54.519Z,3.36
2019-02-25T03:52:54.442Z,3.37
2019-02-25T03:53:54.427Z,3.40
2019-02-25T03:54:54.398Z,3.41
2019-02-25T03:55:54.399Z,3.41
2019-02-25T03:56:54.363Z,3.45
2019-02-25T03:57:54.386Z,3.45
2019-02-25T03:58:54.328Z,3.48
2019-02-25T03:59:54.307Z,3.48
2019-02-25T04:00:54.302Z,3.48
2019-02-25T04:01:54.319Z,3.48
2019-02-25T04:02:54.296Z,3.49
2019-02-25T04:03:54.230Z,3.49
2019-02-25T04:04:54.215Z,3.49
2019-02-25T04:05:54.210Z,3.48
2019-02-25T04:06:54.183Z,3.46
2019-02-25T04:07:54.230Z,3.49
2019-02-25T04:08:54.136Z,3.48
2019-02-25T04:09:54.136Z,3.48
2019-02-25T04:10:54.120Z,3.48
2019-02-25T04:11:54.080Z,3.48
2019-02-25T04:12:54.075Z,3.49
2019-02-25T04:13:54.054Z,3.49
2019-02-25T04:14:54.045Z,3.50
2019-02-25T04:15:54.007Z,3.50
2019-02-25T04:16:53.985Z,3.52
2019-02-25T04:17:53.978Z,3.52
2019-02-25T04:18:53.964Z,3.50
2019-02-25T04:19:53.943Z,3.48
2019-02-25T04:20:53.912Z,3.48
2019-02-25T04:21:53.892Z,3.45
2019-02-25T04:22:53.888Z,3.43
2019-02-25T04:23:53.898Z,3.40
2019-02-25T04:24:53.849Z,3.41
2019-02-25T04:25:53.831Z,3.40
2019-02-25T04:26:55.645Z,3.37
2019-02-25T04:27:53.794Z,3.36
2019-02-25T04:28:53.837Z,3.33
2019-02-25T04:29:53.752Z,3.31
2019-02-25T04:30:53.724Z,3.29
2019-02-25T04:31:53.715Z,3.24
2019-02-25T04:32:53.706Z,3.21
2019-02-25T04:33:53.669Z,3.19
2019-02-25T04:34:53.678Z,3.18
2019-02-25T04:35:53.644Z,3.15
2019-02-25T04:36:53.621Z,3.13
2019-02-25T04:37:53.603Z,3.13
2019-02-25T04:38:53.585Z,3.11
2019-02-25T04:39:53.553Z,3.11
2019-02-25T04:40:53.549Z,3.09
2019-02-25T04:41:53.531Z,3.09
2019-02-25T04:42:53.513Z,3.08
2019-02-25T04:43:53.472Z,3.08
2019-02-25T04:44:53.471Z,3.08
2019-02-25T04:45:53.470Z,3.06
2019-02-25T04:46:53.421Z,3.06
2019-02-25T04:47:53.427Z,3.06
2019-02-25T04:48:53.394Z,3.05
2019-02-25T04:49:53.363Z,3.03
2019-02-25T04:50:53.386Z,3.00
2019-02-25T04:51:53.341Z,2.97
2019-02-25T04:52:53.348Z,2.90
2019-02-25T04:53:53.301Z,2.83
2019-02-25T04:54:53.277Z,2.80
2019-02-25T04:55:53.278Z,2.77
2019-02-25T04:56:53.245Z,2.77
2019-02-25T04:57:53.268Z,2.75
2019-02-25T04:58:53.188Z,2.75
2019-02-25T04:59:53.175Z,2.73
2019-02-25T05:00:53.153Z,2.75
2019-02-25T05:01:53.136Z,2.73
2019-02-25T05:02:53.137Z,2.72
2019-02-25T05:03:53.121Z,2.73
2019-02-25T05:04:53.091Z,2.73
2019-02-25T05:05:53.059Z,2.72
2019-02-25T05:06:53.039Z,2.72
2019-02-25T05:07:53.068Z,2.72
2019-02-25T05:08:53.017Z,2.70
2019-02-25T05:09:53.001Z,2.72
2019-02-25T05:10:52.965Z,2.70
2019-02-25T05:11:52.950Z,2.72
2019-02-25T05:12:52.945Z,2.73
2019-02-25T05:13:52.917Z,2.75
2019-02-25T05:14:52.886Z,2.73
2019-02-25T05:15:52.873Z,2.73
2019-02-25T05:16:52.850Z,2.75
2019-02-25T05:17:52.842Z,2.73
2019-02-25T05:18:52.819Z,2.72
2019-02-25T05:19:52.797Z,2.72
2019-02-25T05:20:52.818Z,2.72
2019-02-25T05:21:52.782Z,2.70
2019-02-25T05:22:52.749Z,2.70
2019-02-25T05:23:52.718Z,2.68
2019-02-25T05:24:52.710Z,2.65
2019-02-25T05:25:52.682Z,2.62
2019-02-25T05:26:52.712Z,2.59
2019-02-25T05:27:52.668Z,2.58
2019-02-25T05:28:52.630Z,2.55
2019-02-25T05:29:52.611Z,2.52
2019-02-25T05:30:52.596Z,2.52
2019-02-25T05:31:52.559Z,2.51
2019-02-25T05:32:52.574Z,2.50
2019-02-25T05:33:52.533Z,2.47
2019-02-25T05:34:52.510Z,2.46
2019-02-25T05:35:52.484Z,2.46
2019-02-25T05:36:52.464Z,2.43
2019-02-25T05:37:52.484Z,2.43
2019-02-25T05:38:52.431Z,2.41
2019-02-25T05:39:52.430Z,2.40
2019-02-25T05:40:52.395Z,2.39
2019-02-25T05:41:52.370Z,2.36
2019-02-25T05:42:52.419Z,2.34
2019-02-25T05:43:52.348Z,2.32
2019-02-25T05:44:52.311Z,2.33
2019-02-25T05:45:52.302Z,2.32
2019-02-25T05:46:52.279Z,2.32
2019-02-25T05:47:52.259Z,2.33
2019-02-25T05:48:52.248Z,2.33
2019-02-25T05:49:52.247Z,2.32
2019-02-25T05:50:52.206Z,2.33
2019-02-25T05:51:52.190Z,2.34
2019-02-25T05:52:52.169Z,2.33
2019-02-25T05:53:52.174Z,2.33
2019-02-25T05:54:52.127Z,2.33
2019-02-25T05:55:52.106Z,2.34
2019-02-25T05:56:52.099Z,2.34
2019-02-25T05:57:52.066Z,2.36
2019-02-25T05:58:52.049Z,2.36
2019-02-25T05:59:52.018Z,2.34
2019-02-25T06:00:52.001Z,2.34
2019-02-25T06:01:51.989Z,2.34
2019-02-25T06:02:51.977Z,2.32
2019-02-25T06:03:51.974Z,2.30
2019-02-25T06:04:51.936Z,2.28
2019-02-25T06:05:51.902Z,2.28
2019-02-25T06:06:51.896Z,2.26
2019-02-25T06:07:51.879Z,2.25
2019-02-25T06:08:51.875Z,2.26
2019-02-25T06:09:51.840Z,2.26
2019-02-25T06:10:51.824Z,2.25
2019-02-25T06:11:51.799Z,2.25
2019-02-25T06:12:51.785Z,2.23
2019-02-25T06:13:51.784Z,2.22
2019-02-25T06:14:51.744Z,2.22
2019-02-25T06:15:51.721Z,2.22
2019-02-25T06:16:51.707Z,2.22
2019-02-25T06:17:51.706Z,2.21
2019-02-25T06:18:51.662Z,2.21
2019-02-25T06:19:51.710Z,2.21
2019-02-25T06:20:51.619Z,2.19
2019-02-25T06:21:51.608Z,2.18
2019-02-25T06:22:51.580Z,2.15
2019-02-25T06:23:51.588Z,2.16
2019-02-25T06:24:51.544Z,2.14
2019-02-25T06:25:51.534Z,2.14
2019-02-25T06:26:51.494Z,2.10
2019-02-25T06:27:51.498Z,2.12
2019-02-25T06:28:51.460Z,2.10
2019-02-25T06:29:51.476Z,2.10
2019-02-25T06:30:51.442Z,2.10
2019-02-25T06:31:51.402Z,2.10
2019-02-25T06:32:51.377Z,2.12
2019-02-25T06:33:51.379Z,2.10
2019-02-25T06:34:51.351Z,2.12
2019-02-25T06:35:51.330Z,2.14
2019-02-25T06:36:51.335Z,2.12
2019-02-25T06:37:51.302Z,2.12
2019-02-25T06:38:51.271Z,2.14
2019-02-25T06:39:51.269Z,2.14
2019-02-25T06:40:51.289Z,2.12
2019-02-25T06:41:51.217Z,2.14
2019-02-25T06:42:51.196Z,2.14
2019-02-25T06:43:51.167Z,2.14
2019-02-25T06:44:51.158Z,2.16
2019-02-25T06:45:51.148Z,2.18
2019-02-25T06:46:51.140Z,2.19
2019-02-25T06:47:51.099Z,2.21
2019-02-25T06:48:51.079Z,2.23
2019-02-25T06:49:51.051Z,2.25
2019-02-25T06:50:51.109Z,2.25
2019-02-25T06:51:51.020Z,2.25
2019-02-25T06:52:51.006Z,2.26
2019-02-25T06:53:50.995Z,2.28
2019-02-25T06:54:50.964Z,2.33
2019-02-25T06:55:50.946Z,2.34
2019-02-25T06:56:50.954Z,2.36
2019-02-25T06:57:50.915Z,2.37
2019-02-25T06:58:50.877Z,2.40
2019-02-25T06:59:50.870Z,2.41
2019-02-25T07:00:50.848Z,2.46
2019-02-25T07:01:50.849Z,2.50
2019-02-25T07:02:50.805Z,2.51
2019-02-25T07:03:50.829Z,2.54
2019-02-25T07:04:50.775Z,2.55
2019-02-25T07:05:50.739Z,2.58
2019-02-25T07:06:50.721Z,2.59
2019-02-25T07:07:50.727Z,2.64
2019-02-25T07:08:50.725Z,2.68
2019-02-25T07:09:50.672Z,2.69
2019-02-25T07:10:50.643Z,2.72
2019-02-25T07:11:50.642Z,2.76
2019-02-25T07:12:50.613Z,2.79
2019-02-25T07:13:50.650Z,2.82
2019-02-25T07:14:50.566Z,2.83
2019-02-25T07:15:50.553Z,2.90
2019-02-25T07:16:50.527Z,2.91
2019-02-25T07:17:50.516Z,2.93
2019-02-25T07:18:50.507Z,2.97
2019-02-25T07:19:50.477Z,3.00
2019-02-25T07:20:50.461Z,3.01
2019-02-25T07:21:50.438Z,3.08
2019-02-25T07:22:50.423Z,3.11
2019-02-25T07:23:50.391Z,3.16
2019-02-25T07:24:52.861Z,3.19
2019-02-25T07:25:50.371Z,3.26
2019-02-25T07:26:50.374Z,3.30
2019-02-25T07:27:50.312Z,3.37
2019-02-25T07:28:50.307Z,3.45
2019-02-25T07:29:50.284Z,3.52
2019-02-25T07:30:50.263Z,3.63
2019-02-25T07:31:50.272Z,3.67
2019-02-25T07:32:50.219Z,3.71
2019-02-25T07:33:50.199Z,3.77
2019-02-25T07:34:50.181Z,3.82
2019-02-25T07:35:50.178Z,3.84
2019-02-25T07:36:50.218Z,3.88
2019-02-25T07:37:51.745Z,3.91
2019-02-25T07:38:50.116Z,3.95
2019-02-25T07:39:50.099Z,4.04
2019-02-25T07:40:50.080Z,4.07
2019-02-25T07:41:50.050Z,4.09
2019-02-25T07:42:50.056Z,4.16
2019-02-25T07:43:50.016Z,4.20
2019-02-25T07:44:50.009Z,4.21
2019-02-25T07:45:49.982Z,4.24
2019-02-25T07:46:49.967Z,4.28
2019-02-25T07:47:49.978Z,4.31
2019-02-25T07:48:49.917Z,4.34
2019-02-25T07:49:49.907Z,4.43
2019-02-25T07:50:49.880Z,4.58
2019-02-25T07:51:49.856Z,4.58
2019-02-25T07:52:49.906Z,4.74
2019-02-25T07:53:49.840Z,4.92
2019-02-25T07:54:49.821Z,4.97
2019-02-25T07:55:49.805Z,5.02
2019-02-25T07:56:49.775Z,5.01
2019-02-25T07:57:49.746Z,5.01
2019-02-25T07:58:49.733Z,5.15
2019-02-25T07:59:49.713Z,5.16
2019-02-25T08:00:49.703Z,5.15
2019-02-25T08:01:49.687Z,5.12
2019-02-25T08:02:49.666Z,5.12
2019-02-25T08:03:49.668Z,5.15
2019-02-25T08:04:49.625Z,5.31
2019-02-25T08:05:49.620Z,5.43
2019-02-25T08:06:49.586Z,5.58
2019-02-25T08:07:49.575Z,5.62
2019-02-25T08:08:49.589Z,5.64
2019-02-25T08:09:50.508Z,5.59
2019-02-25T08:10:49.523Z,5.58
2019-02-25T08:11:49.487Z,5.61
2019-02-25T08:12:49.529Z,5.70
2019-02-25T08:13:49.461Z,5.64
2019-02-25T08:14:49.431Z,5.61
2019-02-25T08:15:49.417Z,5.56
2019-02-25T08:16:49.396Z,5.52
2019-02-25T08:17:49.393Z,5.47
2019-02-25T08:18:49.402Z,5.47
2019-02-25T08:19:49.349Z,5.46
2019-02-25T08:20:49.329Z,5.47
2019-02-25T08:21:49.313Z,5.49
2019-02-25T08:22:49.291Z,5.52
2019-02-25T08:23:49.308Z,5.52
2019-02-25T08:24:49.246Z,5.55
2019-02-25T08:25:49.242Z,5.58
2019-02-25T08:26:49.221Z,5.58
2019-02-25T08:27:49.189Z,5.59
2019-02-25T08:28:49.227Z,5.61
2019-02-25T08:29:49.165Z,5.65
2019-02-25T08:30:49.140Z,5.67
2019-02-25T08:31:49.120Z,5.72
2019-02-25T08:32:49.116Z,5.76
2019-02-25T08:33:49.080Z,5.79
2019-02-25T08:34:49.128Z,5.79
2019-02-25T08:35:49.044Z,5.80
2019-02-25T08:36:49.046Z,5.83
2019-02-25T08:37:49.018Z,5.83
2019-02-25T08:38:48.992Z,5.88
2019-02-25T08:39:48.969Z,5.88
2019-02-25T08:40:48.992Z,5.88
2019-02-25T08:41:48.936Z,5.87
2019-02-25T08:42:48.917Z,5.88
2019-02-25T08:43:48.910Z,5.88
2019-02-25T08:44:49.034Z,5.90
2019-02-25T08:45:48.864Z,5.91
2019-02-25T08:46:48.841Z,5.94
2019-02-25T08:47:48.841Z,5.97
2019-02-25T08:48:48.807Z,5.97
2019-02-25T08:49:48.793Z,6.01
2019-02-25T08:50:48.822Z,6.05
2019-02-25T08:51:52.773Z,6.06
2019-02-25T08:52:48.734Z,6.09
2019-02-25T08:53:49.234Z,6.12
2019-02-25T08:54:48.705Z,6.16
2019-02-25T08:55:48.701Z,6.22
2019-02-25T08:56:53.280Z,6.29
2019-02-25T08:57:49.014Z,6.34
2019-02-25T08:58:48.634Z,6.38
2019-02-25T08:59:48.619Z,6.43
2019-02-25T09:00:48.623Z,6.46
2019-02-25T09:01:48.573Z,6.49
2019-02-25T09:02:48.703Z,6.53
2019-02-25T09:03:48.534Z,6.59
2019-02-25T09:04:49.284Z,6.70
2019-02-25T09:05:48.515Z,6.74
2019-02-25T09:06:48.494Z,6.78
2019-02-25T09:07:48.474Z,6.85
2019-02-25T09:08:48.516Z,6.87
2019-02-25T09:09:48.433Z,6.95
2019-02-25T09:10:48.418Z,7.01
2019-02-25T09:11:48.388Z,7.05
2019-02-25T09:12:48.975Z,7.08
2019-02-25T09:13:48.362Z,7.11
2019-02-25T09:14:48.355Z,7.18
2019-02-25T09:15:48.339Z,7.22
2019-02-25T09:16:48.307Z,7.26
2019-02-25T09:17:48.286Z,7.32
2019-02-25T09:18:48.268Z,7.37
2019-02-25T09:19:48.269Z,7.43
2019-02-25T09:20:48.233Z,7.47
2019-02-25T09:21:48.225Z,7.53
2019-02-25T09:22:48.215Z,7.61
2019-02-25T09:23:48.182Z,7.69
2019-02-25T09:24:48.193Z,7.75
2019-02-25T09:25:48.159Z,7.87
2019-02-25T09:26:48.152Z,8.05
2019-02-25T09:27:48.120Z,8.26
2019-02-25T09:28:48.099Z,8.41
2019-02-25T09:29:48.134Z,8.60
2019-02-25T09:30:48.071Z,8.78
2019-02-25T09:31:48.049Z,8.86
2019-02-25T09:32:48.040Z,8.92
2019-02-25T09:33:48.010Z,8.99
2019-02-25T09:34:47.990Z,8.96
2019-02-25T09:35:48.016Z,8.97
2019-02-25T09:36:47.958Z,9.00
2019-02-25T09:37:47.937Z,9.18
2019-02-25T09:38:47.927Z,9.42
2019-02-25T09:39:47.918Z,9.59
2019-02-25T09:40:47.922Z,9.80
2019-02-25T09:41:47.885Z,10.05
2019-02-25T09:42:47.861Z,10.23
2019-02-25T09:43:47.858Z,10.36
2019-02-25T09:44:47.830Z,10.30
2019-02-25T09:45:47.867Z,10.25
2019-02-25T09:46:47.806Z,10.30
2019-02-25T09:47:47.794Z,10.36
2019-02-25T09:48:47.775Z,10.43
2019-02-25T09:49:47.758Z,10.59
2019-02-25T09:50:47.746Z,10.75
2019-02-25T09:51:47.735Z,10.90
2019-02-25T09:52:47.709Z,10.90
2019-02-25T09:53:47.689Z,10.76
2019-02-25T09:54:47.686Z,10.58
2019-02-25T09:55:47.695Z,10.45
2019-02-25T09:56:47.641Z,10.20
2019-02-25T09:57:47.666Z,10.07
2019-02-25T09:58:47.613Z,9.99
2019-02-25T09:59:47.641Z,9.85
2019-02-25T10:00:47.586Z,9.74
2019-02-25T10:01:47.569Z,9.63
2019-02-25T10:02:47.552Z,9.54
2019-02-25T10:03:47.543Z,9.48
2019-02-25T10:04:47.515Z,9.52
2019-02-25T10:05:47.504Z,9.58
2019-02-25T10:06:47.534Z,9.63
2019-02-25T10:07:47.471Z,9.66
2019-02-25T10:08:47.466Z,9.72
2019-02-25T10:09:47.436Z,9.85
2019-02-25T10:10:47.442Z,9.99
2019-02-25T10:11:48.745Z,10.05
2019-02-25T10:12:47.417Z,10.05
2019-02-25T10:13:47.373Z,10.07
2019-02-25T10:14:49.444Z,10.07
2019-02-25T10:15:47.347Z,10.09
2019-02-25T10:16:47.333Z,10.09
2019-02-25T10:17:47.340Z,10.12
2019-02-25T10:18:47.301Z,10.20
2019-02-25T10:19:47.293Z,10.24
2019-02-25T10:20:47.425Z,10.31
2019-02-25T10:21:47.250Z,10.43
2019-02-25T10:22:47.234Z,10.65
2019-02-25T10:23:47.225Z,10.90
2019-02-25T10:24:47.216Z,11.12
2019-02-25T10:25:47.193Z,11.27
2019-02-25T10:26:47.178Z,11.49
2019-02-25T10:27:49.350Z,11.59
2019-02-25T10:28:47.161Z,11.85
2019-02-25T10:29:47.136Z,12.07
2019-02-25T10:30:52.920Z,12.18
2019-02-25T10:31:47.114Z,12.45
2019-02-25T10:32:47.093Z,12.75
2019-02-25T10:33:47.084Z,12.90
2019-02-25T10:34:47.069Z,13.11
2019-02-25T10:35:47.045Z,13.06
2019-02-25T10:36:48.135Z,13.09
2019-02-25T10:37:47.008Z,12.93
2019-02-25T10:38:47.047Z,12.81
2019-02-25T10:39:47.959Z,12.69
2019-02-25T10:40:47.501Z,12.93
2019-02-25T10:41:46.956Z,13.26
2019-02-25T10:42:46.956Z,13.80
2019-02-25T10:43:46.933Z,14.12
2019-02-25T10:44:46.944Z,14.68
2019-02-25T10:45:46.941Z,14.74
2019-02-25T10:46:48.688Z,14.66
2019-02-25T10:47:48.982Z,14.87
2019-02-25T10:48:47.453Z,15.00
2019-02-25T10:49:46.858Z,14.74
2019-02-25T10:50:55.579Z,14.43
2019-02-25T10:51:46.826Z,13.98
2019-02-25T10:52:47.669Z,13.68
2019-02-25T10:53:47.839Z,13.27
2019-02-25T10:54:47.935Z,12.84
2019-02-25T10:55:48.794Z,12.54
2019-02-25T10:56:47.350Z,12.40
2019-02-25T10:57:46.739Z,12.28
2019-02-25T10:58:46.735Z,12.11
2019-02-25T10:59:46.717Z,11.99
2019-02-25T11:00:46.725Z,11.88
2019-02-25T11:01:47.519Z,11.81
2019-02-25T11:02:47.359Z,11.88
2019-02-25T11:03:47.927Z,12.05
2019-02-25T11:04:47.389Z,12.30
2019-02-25T11:05:46.670Z,12.65
2019-02-25T11:06:46.616Z,13.11
2019-02-25T11:07:46.613Z,13.64
2019-02-25T11:08:46.598Z,14.07
2019-02-25T11:09:48.194Z,14.68
2019-02-25T11:10:48.544Z,15.08
2019-02-25T11:11:48.423Z,15.07
2019-02-25T11:12:46.549Z,15.44
2019-02-25T11:13:46.526Z,15.35
2019-02-25T11:14:46.516Z,14.92
2019-02-25T11:15:48.349Z,14.53
2019-02-25T11:16:48.050Z,14.05
2019-02-25T11:17:47.664Z,13.82
2019-02-25T11:18:46.473Z,13.91
2019-02-25T11:19:46.451Z,13.95
2019-02-25T11:20:46.444Z,14.00
2019-02-25T11:21:46.444Z,14.08
2019-02-25T11:22:48.420Z,13.83
2019-02-25T11:23:47.200Z,13.64
2019-02-25T11:24:48.548Z,13.50
2019-02-25T11:25:46.385Z,13.58
2019-02-25T11:26:46.364Z,13.79
2019-02-25T11:27:46.372Z,13.89
2019-02-25T11:28:46.337Z,14.05
2019-02-25T11:29:48.259Z,14.13
2019-02-25T11:30:47.589Z,14.44
2019-02-25T11:31:47.405Z,14.31
2019-02-25T11:32:46.283Z,14.31
2019-02-25T11:33:46.277Z,14.18
2019-02-25T11:34:46.273Z,14.20
2019-02-25T11:35:48.012Z,14.28
2019-02-25T11:36:47.684Z,14.38
2019-02-25T11:37:46.238Z,14.38
2019-02-25T11:38:46.248Z,14.34
2019-02-25T11:39:46.201Z,14.30
2019-02-25T11:40:46.200Z,14.18
2019-02-25T11:41:46.183Z,14.16
2019-02-25T11:42:46.164Z,14.13
2019-02-25T11:43:48.098Z,14.16
2019-02-25T11:44:46.148Z,14.15
2019-02-25T11:45:46.130Z,14.11
2019-02-25T11:46:46.120Z,14.12
2019-02-25T11:47:46.183Z,14.23
2019-02-25T11:48:46.089Z,14.56
2019-02-25T11:49:46.083Z,15.05
2019-02-25T11:50:46.074Z,15.33
2019-02-25T11:51:46.089Z,15.55
2019-02-25T11:52:46.084Z,15.67
2019-02-25T11:53:46.036Z,15.81
2019-02-25T11:54:46.024Z,15.55
2019-02-25T11:55:46.004Z,15.27
2019-02-25T11:56:45.991Z,15.17
2019-02-25T11:57:46.017Z,15.35
2019-02-25T11:58:45.972Z,15.54
2019-02-25T11:59:46.049Z,15.80
2019-02-25T12:00:45.953Z,16.13
2019-02-25T12:01:45.940Z,16.50
2019-02-25T12:02:45.962Z,16.84
2019-02-25T12:03:45.928Z,17.19
2019-02-25T12:04:45.902Z,17.47
2019-02-25T12:05:45.897Z,17.84
2019-02-25T12:06:45.894Z,18.45
2019-02-25T12:07:45.886Z,19.16
2019-02-25T12:08:45.893Z,19.75
2019-02-25T12:09:45.849Z,20.14
2019-02-25T12:10:45.838Z,20.44
2019-02-25T12:11:45.834Z,20.56
2019-02-25T12:12:45.822Z,20.42
2019-02-25T12:13:45.868Z,20.14
2019-02-25T12:14:45.815Z,19.84
2019-02-25T12:15:45.805Z,19.47
2019-02-25T12:16:45.788Z,19.17
2019-02-25T12:17:45.775Z,18.86
2019-02-25T12:18:45.768Z,18.67
2019-02-25T12:19:45.769Z,18.53
2019-02-25T12:20:45.751Z,18.51
2019-02-25T12:21:45.730Z,18.55
2019-02-25T12:22:45.739Z,18.81
2019-02-25T12:23:45.728Z,18.27
2019-02-25T12:24:45.722Z,18.02
2019-02-25T12:25:45.711Z,17.76
2019-02-25T12:26:45.701Z,17.86
2019-02-25T12:27:45.692Z,18.27
2019-02-25T12:28:45.676Z,17.86
2019-02-25T12:29:45.702Z,17.53
2019-02-25T12:30:45.662Z,17.20
2019-02-25T12:31:45.649Z,16.87
2019-02-25T12:32:45.646Z,16.64
2019-02-25T12:33:45.629Z,16.55
2019-02-25T12:34:45.649Z,16.50
2019-02-25T12:35:45.609Z,16.66
2019-02-25T12:36:45.650Z,16.65
2019-02-25T12:37:45.599Z,16.61
2019-02-25T12:38:45.586Z,17.01
2019-02-25T12:39:45.584Z,17.32
2019-02-25T12:40:45.602Z,17.54
2019-02-25T12:41:45.558Z,17.78
2019-02-25T12:42:45.559Z,17.97
2019-02-25T12:43:45.583Z,18.06
2019-02-25T12:44:45.530Z,18.00
2019-02-25T12:45:45.524Z,17.91
2019-02-25T12:46:45.517Z,17.86
2019-02-25T12:47:45.546Z,17.69
2019-02-25T12:48:45.512Z,17.60
2019-02-25T12:49:45.505Z,17.59
2019-02-25T12:50:45.489Z,17.49
2019-02-25T12:51:45.473Z,17.20
2019-02-25T12:52:45.509Z,16.91
2019-02-25T12:53:45.465Z,16.62
2019-02-25T12:54:45.461Z,16.40
2019-02-25T12:55:45.448Z,16.32
2019-02-25T12:56:45.459Z,16.43
2019-02-25T12:57:45.422Z,16.59
2019-02-25T12:58:45.418Z,16.84
2019-02-25T12:59:45.410Z,17.09
2019-02-25T13:00:45.437Z,17.30
2019-02-25T13:01:45.395Z,17.39
2019-02-25T13:02:45.414Z,17.41
2019-02-25T13:03:45.376Z,17.35
2019-02-25T13:04:45.353Z,17.30
2019-02-25T13:05:45.350Z,17.27
2019-02-25T13:06:45.346Z,17.30
2019-02-25T13:07:45.470Z,17.38
2019-02-25T13:08:45.332Z,17.57
2019-02-25T13:09:45.333Z,17.82
2019-02-25T13:10:45.315Z,17.91
2019-02-25T13:11:45.297Z,17.82